sensor_id;sensor_type;location;lat;lon;timestamp;pressure;altitude;pressure_sealevel;temperature;humidity
72677;BME280;60755;51.374;10.662;2023-03-14T00:01:09;94952.03;;;8.62;97.74
72677;BME280;60755;51.374;10.662;2023-03-14T00:03:36;94957.88;;;8.54;97.89
72677;BME280;60755;51.374;10.662;2023-03-14T00:06:04;94952.66;;;8.49;98.17
72677;BME280;60755;51.374;10.662;2023-03-14T00:08:33;94957.59;;;8.55;97.24
72677;BME280;60755;51.374;10.662;2023-03-14T00:11:04;94962.69;;;8.41;97.71
72677;BME280;60755;51.374;10.662;2023-03-14T00:13:32;94969.53;;;8.37;98.34
72677;BME280;60755;51.374;10.662;2023-03-14T00:16:03;94962.75;;;8.36;98.42
72677;BME280;60755;51.374;10.662;2023-03-14T00:18:30;94964.59;;;8.36;99.26
72677;BME280;60755;51.374;10.662;2023-03-14T00:20:58;94971.66;;;8.35;98.23
72677;BME280;60755;51.374;10.662;2023-03-14T00:23:26;94982.63;;;8.32;98.09
72677;BME280;60755;51.374;10.662;2023-03-14T00:25:58;95003.06;;;8.35;98.19
72677;BME280;60755;51.374;10.662;2023-03-14T00:28:25;95018.78;;;8.35;97.45
72677;BME280;60755;51.374;10.662;2023-03-14T00:30:53;95011.41;;;8.37;98.42
72677;BME280;60755;51.374;10.662;2023-03-14T00:33:21;95025.00;;;8.39;98.53
72677;BME280;60755;51.374;10.662;2023-03-14T00:35:55;95019.44;;;8.46;97.74
72677;BME280;60755;51.374;10.662;2023-03-14T00:38:23;95032.75;;;8.50;97.66
72677;BME280;60755;51.374;10.662;2023-03-14T00:40:51;95034.06;;;8.52;96.83
72677;BME280;60755;51.374;10.662;2023-03-14T00:43:20;95047.44;;;8.51;96.37
72677;BME280;60755;51.374;10.662;2023-03-14T00:45:48;95055.53;;;8.49;96.15
72677;BME280;60755;51.374;10.662;2023-03-14T00:48:15;95058.16;;;8.49;96.83
72677;BME280;60755;51.374;10.662;2023-03-14T00:50:43;95056.47;;;8.63;95.07
72677;BME280;60755;51.374;10.662;2023-03-14T00:53:10;95065.16;;;8.59;95.76
72677;BME280;60755;51.374;10.662;2023-03-14T00:55:38;95050.69;;;8.66;94.76
72677;BME280;60755;51.374;10.662;2023-03-14T00:58:06;95044.31;;;8.73;95.00
72677;BME280;60755;51.374;10.662;2023-03-14T01:00:35;95054.44;;;8.84;94.21
72677;BME280;60755;51.374;10.662;2023-03-14T01:03:03;95044.00;;;8.79;93.33
72677;BME280;60755;51.374;10.662;2023-03-14T01:05:31;95046.13;;;8.77;93.50
72677;BME280;60755;51.374;10.662;2023-03-14T01:07:58;95051.38;;;8.77;93.80
72677;BME280;60755;51.374;10.662;2023-03-14T01:10:26;95035.53;;;8.87;93.53
72677;BME280;60755;51.374;10.662;2023-03-14T01:12:54;95035.66;;;8.77;93.14
72677;BME280;60755;51.374;10.662;2023-03-14T01:15:22;95036.16;;;8.79;94.50
72677;BME280;60755;51.374;10.662;2023-03-14T01:17:50;95035.41;;;8.74;95.07
72677;BME280;60755;51.374;10.662;2023-03-14T01:20:18;95035.97;;;8.71;94.27
72677;BME280;60755;51.374;10.662;2023-03-14T01:22:45;95023.81;;;8.56;95.16
72677;BME280;60755;51.374;10.662;2023-03-14T01:25:14;95023.94;;;8.69;94.53
72677;BME280;60755;51.374;10.662;2023-03-14T01:27:42;95032.09;;;8.68;94.63
72677;BME280;60755;51.374;10.662;2023-03-14T01:30:11;95034.69;;;8.68;94.04
72677;BME280;60755;51.374;10.662;2023-03-14T01:32:39;95018.22;;;8.67;94.18
72677;BME280;60755;51.374;10.662;2023-03-14T01:35:08;95015.06;;;8.65;93.54
72677;BME280;60755;51.374;10.662;2023-03-14T01:37:35;95017.19;;;8.63;93.69
72677;BME280;60755;51.374;10.662;2023-03-14T01:40:05;94995.50;;;8.58;94.99
72677;BME280;60755;51.374;10.662;2023-03-14T01:42:32;95011.44;;;8.61;93.76
72677;BME280;60755;51.374;10.662;2023-03-14T01:45:00;94998.66;;;8.60;94.19
72677;BME280;60755;51.374;10.662;2023-03-14T01:47:29;95002.38;;;8.54;94.49
72677;BME280;60755;51.374;10.662;2023-03-14T01:49:59;94999.75;;;8.54;95.07
72677;BME280;60755;51.374;10.662;2023-03-14T01:52:33;94980.94;;;8.52;94.70
72677;BME280;60755;51.374;10.662;2023-03-14T01:55:05;94979.13;;;8.47;94.34
72677;BME280;60755;51.374;10.662;2023-03-14T01:57:37;94975.72;;;8.47;94.50
72677;BME280;60755;51.374;10.662;2023-03-14T02:00:07;94971.00;;;8.49;93.73
72677;BME280;60755;51.374;10.662;2023-03-14T02:02:42;94976.06;;;8.40;95.57
72677;BME280;60755;51.374;10.662;2023-03-14T02:05:15;94977.13;;;8.39;93.86
72677;BME280;60755;51.374;10.662;2023-03-14T02:07:51;94968.00;;;8.31;95.53
72677;BME280;60755;51.374;10.662;2023-03-14T02:10:25;94968.59;;;8.23;94.80
72677;BME280;60755;51.374;10.662;2023-03-14T02:12:56;94965.94;;;8.28;94.41
72677;BME280;60755;51.374;10.662;2023-03-14T02:15:34;94964.88;;;8.29;94.41
72677;BME280;60755;51.374;10.662;2023-03-14T02:18:08;94960.16;;;8.31;94.22
72677;BME280;60755;51.374;10.662;2023-03-14T02:20:47;94953.56;;;8.39;94.81
72677;BME280;60755;51.374;10.662;2023-03-14T02:23:23;94952.00;;;8.38;94.39
72677;BME280;60755;51.374;10.662;2023-03-14T02:25:57;94937.66;;;8.30;95.07
72677;BME280;60755;51.374;10.662;2023-03-14T02:28:27;94933.00;;;8.27;95.57
72677;BME280;60755;51.374;10.662;2023-03-14T02:30:57;94928.84;;;8.21;95.88
72677;BME280;60755;51.374;10.662;2023-03-14T02:33:25;94915.50;;;8.23;95.68
72677;BME280;60755;51.374;10.662;2023-03-14T02:35:56;94909.97;;;8.24;95.03
72677;BME280;60755;51.374;10.662;2023-03-14T02:38:27;94908.97;;;8.20;95.63
72677;BME280;60755;51.374;10.662;2023-03-14T02:41:00;94933.59;;;8.19;94.41
72677;BME280;60755;51.374;10.662;2023-03-14T02:43:30;94929.06;;;8.25;94.19
72677;BME280;60755;51.374;10.662;2023-03-14T02:46:01;94917.81;;;8.24;94.58
72677;BME280;60755;51.374;10.662;2023-03-14T02:48:33;94922.06;;;8.20;95.44
72677;BME280;60755;51.374;10.662;2023-03-14T02:51:02;94918.06;;;8.28;94.30
72677;BME280;60755;51.374;10.662;2023-03-14T02:53:32;94908.25;;;8.44;93.43
72677;BME280;60755;51.374;10.662;2023-03-14T02:56:06;94902.94;;;8.49;93.30
72677;BME280;60755;51.374;10.662;2023-03-14T02:58:36;94900.84;;;8.51;94.62
72677;BME280;60755;51.374;10.662;2023-03-14T03:01:16;94902.72;;;8.45;93.27
72677;BME280;60755;51.374;10.662;2023-03-14T03:03:43;94895.00;;;8.35;93.80
72677;BME280;60755;51.374;10.662;2023-03-14T03:06:11;94895.28;;;8.28;94.01
72677;BME280;60755;51.374;10.662;2023-03-14T03:08:38;94891.16;;;8.22;95.04
72677;BME280;60755;51.374;10.662;2023-03-14T03:11:06;94900.13;;;8.16;96.14
72677;BME280;60755;51.374;10.662;2023-03-14T03:13:36;94881.19;;;8.24;96.12
72677;BME280;60755;51.374;10.662;2023-03-14T03:16:05;94873.03;;;8.31;95.71
72677;BME280;60755;51.374;10.662;2023-03-14T03:18:34;94856.41;;;8.46;94.68
72677;BME280;60755;51.374;10.662;2023-03-14T03:21:02;94868.88;;;8.54;93.50
72677;BME280;60755;51.374;10.662;2023-03-14T03:23:30;94866.53;;;8.52;94.53
72677;BME280;60755;51.374;10.662;2023-03-14T03:25:57;94876.09;;;8.62;92.86
72677;BME280;60755;51.374;10.662;2023-03-14T03:28:25;94879.16;;;8.69;93.69
72677;BME280;60755;51.374;10.662;2023-03-14T03:30:54;94879.44;;;8.67;93.18
72677;BME280;60755;51.374;10.662;2023-03-14T03:33:22;94883.91;;;8.67;93.17
72677;BME280;60755;51.374;10.662;2023-03-14T03:35:50;94884.31;;;8.74;92.41
72677;BME280;60755;51.374;10.662;2023-03-14T03:38:29;94862.69;;;8.68;92.50
72677;BME280;60755;51.374;10.662;2023-03-14T03:41:02;94880.72;;;8.70;93.04
72677;BME280;60755;51.374;10.662;2023-03-14T03:43:29;94858.56;;;8.62;93.39
72677;BME280;60755;51.374;10.662;2023-03-14T03:46:02;94869.94;;;8.53;92.58
72677;BME280;60755;51.374;10.662;2023-03-14T03:48:30;94876.56;;;8.45;94.20
72677;BME280;60755;51.374;10.662;2023-03-14T03:50:58;94883.78;;;8.53;93.41
72677;BME280;60755;51.374;10.662;2023-03-14T03:53:25;94877.22;;;8.56;93.98
72677;BME280;60755;51.374;10.662;2023-03-14T03:55:53;94883.97;;;8.62;93.76
72677;BME280;60755;51.374;10.662;2023-03-14T03:58:20;94878.09;;;8.70;93.79
72677;BME280;60755;51.374;10.662;2023-03-14T04:00:47;94892.78;;;8.66;94.27
72677;BME280;60755;51.374;10.662;2023-03-14T04:03:16;94880.75;;;8.65;92.70
72677;BME280;60755;51.374;10.662;2023-03-14T04:05:44;94888.47;;;8.56;93.24
72677;BME280;60755;51.374;10.662;2023-03-14T04:08:11;94880.06;;;8.59;94.37
72677;BME280;60755;51.374;10.662;2023-03-14T04:10:38;94876.44;;;8.55;94.39
72677;BME280;60755;51.374;10.662;2023-03-14T04:13:11;94874.59;;;8.56;93.85
72677;BME280;60755;51.374;10.662;2023-03-14T04:15:40;94892.38;;;8.59;94.54
72677;BME280;60755;51.374;10.662;2023-03-14T04:18:14;94887.16;;;8.59;93.38
72677;BME280;60755;51.374;10.662;2023-03-14T04:20:44;94882.13;;;8.62;94.33
72677;BME280;60755;51.374;10.662;2023-03-14T04:23:11;94871.44;;;8.59;92.56
72677;BME280;60755;51.374;10.662;2023-03-14T04:25:39;94865.19;;;8.55;92.61
72677;BME280;60755;51.374;10.662;2023-03-14T04:28:06;94853.38;;;8.57;93.96
72677;BME280;60755;51.374;10.662;2023-03-14T04:30:33;94851.91;;;8.51;93.81
72677;BME280;60755;51.374;10.662;2023-03-14T04:33:14;94862.09;;;8.53;92.53
72677;BME280;60755;51.374;10.662;2023-03-14T04:35:52;94868.03;;;8.58;92.68
72677;BME280;60755;51.374;10.662;2023-03-14T04:38:20;94866.69;;;8.61;93.35
72677;BME280;60755;51.374;10.662;2023-03-14T04:40:48;94869.75;;;8.68;92.35
72677;BME280;60755;51.374;10.662;2023-03-14T04:43:18;94858.22;;;8.69;91.38
72677;BME280;60755;51.374;10.662;2023-03-14T04:45:57;94854.66;;;8.60;91.17
72677;BME280;60755;51.374;10.662;2023-03-14T04:48:26;94841.16;;;8.53;92.11
72677;BME280;60755;51.374;10.662;2023-03-14T04:50:55;94845.31;;;8.54;92.39
72677;BME280;60755;51.374;10.662;2023-03-14T04:53:23;94844.69;;;8.62;90.84
72677;BME280;60755;51.374;10.662;2023-03-14T04:55:55;94848.09;;;8.62;90.62
72677;BME280;60755;51.374;10.662;2023-03-14T04:58:24;94845.75;;;8.61;91.24
72677;BME280;60755;51.374;10.662;2023-03-14T05:00:54;94841.00;;;8.63;90.83
72677;BME280;60755;51.374;10.662;2023-03-14T05:03:39;94844.47;;;8.58;90.62
72677;BME280;60755;51.374;10.662;2023-03-14T05:06:23;94846.25;;;8.63;91.04
72677;BME280;60755;51.374;10.662;2023-03-14T05:09:05;94849.94;;;8.62;91.63
72677;BME280;60755;51.374;10.662;2023-03-14T05:11:36;94841.06;;;8.58;90.70
72677;BME280;60755;51.374;10.662;2023-03-14T05:14:15;94836.41;;;8.55;91.16
72677;BME280;60755;51.374;10.662;2023-03-14T05:17:01;94832.72;;;8.56;89.46
72677;BME280;60755;51.374;10.662;2023-03-14T05:19:40;94832.78;;;8.51;89.72
72677;BME280;60755;51.374;10.662;2023-03-14T05:22:25;94841.16;;;8.53;89.85
72677;BME280;60755;51.374;10.662;2023-03-14T05:25:17;94829.81;;;8.57;90.00
72677;BME280;60755;51.374;10.662;2023-03-14T05:28:07;94836.84;;;8.62;89.35
72677;BME280;60755;51.374;10.662;2023-03-14T05:30:56;94832.66;;;8.61;88.79
72677;BME280;60755;51.374;10.662;2023-03-14T05:33:52;94823.75;;;8.62;87.18
72677;BME280;60755;51.374;10.662;2023-03-14T05:36:29;94836.69;;;8.53;88.54
72677;BME280;60755;51.374;10.662;2023-03-14T05:39:12;94838.09;;;8.46;89.45
72677;BME280;60755;51.374;10.662;2023-03-14T05:42:00;94836.53;;;8.45;88.64
72677;BME280;60755;51.374;10.662;2023-03-14T05:45:00;94840.22;;;8.44;90.24
72677;BME280;60755;51.374;10.662;2023-03-14T05:47:43;94839.69;;;8.41;90.28
72677;BME280;60755;51.374;10.662;2023-03-14T05:50:21;94829.16;;;8.47;89.84
72677;BME280;60755;51.374;10.662;2023-03-14T05:52:59;94830.66;;;8.53;88.56
72677;BME280;60755;51.374;10.662;2023-03-14T05:55:42;94831.66;;;8.57;88.23
72677;BME280;60755;51.374;10.662;2023-03-14T05:58:17;94833.34;;;8.48;89.32
72677;BME280;60755;51.374;10.662;2023-03-14T06:01:05;94838.13;;;8.40;89.21
72677;BME280;60755;51.374;10.662;2023-03-14T06:03:59;94839.50;;;8.33;90.24
72677;BME280;60755;51.374;10.662;2023-03-14T06:06:27;94832.78;;;8.27;90.86
72677;BME280;60755;51.374;10.662;2023-03-14T06:08:54;94847.63;;;8.31;90.41
72677;BME280;60755;51.374;10.662;2023-03-14T06:11:23;94848.88;;;8.39;89.10
72677;BME280;60755;51.374;10.662;2023-03-14T06:13:51;94845.00;;;8.36;90.53
72677;BME280;60755;51.374;10.662;2023-03-14T06:16:18;94849.66;;;8.39;90.67
72677;BME280;60755;51.374;10.662;2023-03-14T06:18:46;94853.84;;;8.40;89.63
72677;BME280;60755;51.374;10.662;2023-03-14T06:21:15;94855.00;;;8.53;88.48
72677;BME280;60755;51.374;10.662;2023-03-14T06:23:43;94837.63;;;8.81;86.37
72677;BME280;60755;51.374;10.662;2023-03-14T06:26:10;94844.63;;;8.67;86.53
72677;BME280;60755;51.374;10.662;2023-03-14T06:28:40;94836.63;;;8.58;88.07
72677;BME280;60755;51.374;10.662;2023-03-14T06:31:08;94835.91;;;8.53;88.80
72677;BME280;60755;51.374;10.662;2023-03-14T06:33:43;94840.22;;;8.62;87.82
72677;BME280;60755;51.374;10.662;2023-03-14T06:36:11;94826.38;;;8.62;88.09
72677;BME280;60755;51.374;10.662;2023-03-14T06:38:41;94829.69;;;9.24;86.11
72677;BME280;60755;51.374;10.662;2023-03-14T06:41:08;94829.28;;;11.14;79.13
72677;BME280;60755;51.374;10.662;2023-03-14T06:43:42;94827.75;;;10.63;77.87
72677;BME280;60755;51.374;10.662;2023-03-14T06:46:10;94833.25;;;9.79;82.49
72677;BME280;60755;51.374;10.662;2023-03-14T06:48:39;94827.81;;;9.43;83.66
72677;BME280;60755;51.374;10.662;2023-03-14T06:51:07;94820.53;;;9.40;85.81
72677;BME280;60755;51.374;10.662;2023-03-14T06:53:34;94827.41;;;9.36;86.33
72677;BME280;60755;51.374;10.662;2023-03-14T06:56:02;94829.06;;;9.13;85.86
72677;BME280;60755;51.374;10.662;2023-03-14T06:58:32;94834.50;;;9.17;86.28
72677;BME280;60755;51.374;10.662;2023-03-14T07:01:02;94818.09;;;9.11;86.36
72677;BME280;60755;51.374;10.662;2023-03-14T07:03:35;94817.38;;;9.06;87.03
72677;BME280;60755;51.374;10.662;2023-03-14T07:06:05;94815.47;;;9.11;86.61
72677;BME280;60755;51.374;10.662;2023-03-14T07:08:33;94808.09;;;9.13;87.26
72677;BME280;60755;51.374;10.662;2023-03-14T07:11:01;94806.25;;;9.33;86.40
72677;BME280;60755;51.374;10.662;2023-03-14T07:13:28;94821.44;;;9.96;82.81
72677;BME280;60755;51.374;10.662;2023-03-14T07:16:08;94808.50;;;9.99;82.73
72677;BME280;60755;51.374;10.662;2023-03-14T07:18:37;94803.25;;;9.99;83.42
72677;BME280;60755;51.374;10.662;2023-03-14T07:21:06;94818.59;;;9.78;83.38
72677;BME280;60755;51.374;10.662;2023-03-14T07:23:33;94823.63;;;9.75;83.02
72677;BME280;60755;51.374;10.662;2023-03-14T07:26:01;94807.91;;;9.89;83.16
72677;BME280;60755;51.374;10.662;2023-03-14T07:28:30;94823.63;;;9.75;83.18
72677;BME280;60755;51.374;10.662;2023-03-14T07:31:03;94829.53;;;9.67;83.55
72677;BME280;60755;51.374;10.662;2023-03-14T07:33:33;94834.19;;;9.70;84.77
72677;BME280;60755;51.374;10.662;2023-03-14T07:36:02;94831.31;;;9.85;84.42
72677;BME280;60755;51.374;10.662;2023-03-14T07:38:30;94829.41;;;9.58;87.48
72677;BME280;60755;51.374;10.662;2023-03-14T07:41:09;94841.75;;;9.58;88.79
72677;BME280;60755;51.374;10.662;2023-03-14T07:43:43;94837.16;;;9.49;90.08
72677;BME280;60755;51.374;10.662;2023-03-14T07:46:10;94835.59;;;9.48;90.58
72677;BME280;60755;51.374;10.662;2023-03-14T07:48:39;94837.94;;;9.50;91.50
72677;BME280;60755;51.374;10.662;2023-03-14T07:51:06;94845.50;;;9.51;90.85
72677;BME280;60755;51.374;10.662;2023-03-14T07:53:33;94834.47;;;9.55;89.90
72677;BME280;60755;51.374;10.662;2023-03-14T07:56:01;94842.06;;;9.70;89.69
72677;BME280;60755;51.374;10.662;2023-03-14T07:58:28;94836.44;;;9.63;90.06
72677;BME280;60755;51.374;10.662;2023-03-14T08:00:55;94836.78;;;9.56;90.30
72677;BME280;60755;51.374;10.662;2023-03-14T08:03:25;94831.31;;;9.52;88.76
72677;BME280;60755;51.374;10.662;2023-03-14T08:05:54;94836.13;;;9.64;88.18
72677;BME280;60755;51.374;10.662;2023-03-14T08:08:21;94833.63;;;9.73;89.05
72677;BME280;60755;51.374;10.662;2023-03-14T08:10:48;94830.88;;;9.64;88.21
72677;BME280;60755;51.374;10.662;2023-03-14T08:13:15;94837.88;;;9.69;88.11
72677;BME280;60755;51.374;10.662;2023-03-14T08:15:48;94823.38;;;9.58;88.66
72677;BME280;60755;51.374;10.662;2023-03-14T08:18:16;94818.16;;;9.58;88.66
72677;BME280;60755;51.374;10.662;2023-03-14T08:20:44;94814.28;;;9.69;89.15
72677;BME280;60755;51.374;10.662;2023-03-14T08:23:12;94808.97;;;9.74;88.33
72677;BME280;60755;51.374;10.662;2023-03-14T08:25:40;94816.41;;;9.67;88.84
72677;BME280;60755;51.374;10.662;2023-03-14T08:28:07;94809.63;;;9.66;89.33
72677;BME280;60755;51.374;10.662;2023-03-14T08:30:34;94801.28;;;9.64;88.80
72677;BME280;60755;51.374;10.662;2023-03-14T08:33:02;94804.38;;;9.66;88.68
72677;BME280;60755;51.374;10.662;2023-03-14T08:35:29;94788.06;;;9.69;88.81
72677;BME280;60755;51.374;10.662;2023-03-14T08:37:57;94778.19;;;10.21;86.86
72677;BME280;60755;51.374;10.662;2023-03-14T08:40:25;94786.56;;;10.23;84.77
72677;BME280;60755;51.374;10.662;2023-03-14T08:42:53;94781.94;;;10.56;83.52
72677;BME280;60755;51.374;10.662;2023-03-14T08:45:20;94786.97;;;10.66;82.10
72677;BME280;60755;51.374;10.662;2023-03-14T08:47:47;94788.25;;;10.69;81.86
72677;BME280;60755;51.374;10.662;2023-03-14T08:50:16;94789.00;;;10.83;81.16
72677;BME280;60755;51.374;10.662;2023-03-14T08:52:43;94791.34;;;10.84;81.19
72677;BME280;60755;51.374;10.662;2023-03-14T08:55:11;94793.00;;;10.67;81.88
72677;BME280;60755;51.374;10.662;2023-03-14T08:57:39;94787.66;;;10.72;81.87
72677;BME280;60755;51.374;10.662;2023-03-14T09:00:08;94788.06;;;11.01;80.20
72677;BME280;60755;51.374;10.662;2023-03-14T09:02:38;94798.38;;;10.75;82.07
72677;BME280;60755;51.374;10.662;2023-03-14T09:05:07;94795.81;;;10.84;80.93
72677;BME280;60755;51.374;10.662;2023-03-14T09:07:34;94803.28;;;10.27;82.46
72677;BME280;60755;51.374;10.662;2023-03-14T09:10:01;94807.88;;;10.35;83.35
72677;BME280;60755;51.374;10.662;2023-03-14T09:12:28;94794.91;;;10.11;84.93
72677;BME280;60755;51.374;10.662;2023-03-14T09:14:57;94812.22;;;10.26;83.51
72677;BME280;60755;51.374;10.662;2023-03-14T09:17:25;94805.50;;;10.33;84.43
72677;BME280;60755;51.374;10.662;2023-03-14T09:19:52;94801.31;;;10.05;84.63
72677;BME280;60755;51.374;10.662;2023-03-14T09:22:19;94820.19;;;10.21;83.62
72677;BME280;60755;51.374;10.662;2023-03-14T09:24:47;94823.09;;;10.33;83.12
72677;BME280;60755;51.374;10.662;2023-03-14T09:27:14;94829.53;;;10.27;83.32
72677;BME280;60755;51.374;10.662;2023-03-14T09:29:41;94835.94;;;10.21;83.92
72677;BME280;60755;51.374;10.662;2023-03-14T09:32:10;94833.19;;;10.12;83.44
72677;BME280;60755;51.374;10.662;2023-03-14T09:34:37;94850.28;;;10.09;84.71
72677;BME280;60755;51.374;10.662;2023-03-14T09:37:05;94848.34;;;10.01;85.38
72677;BME280;60755;51.374;10.662;2023-03-14T09:39:32;94854.59;;;10.19;84.79
72677;BME280;60755;51.374;10.662;2023-03-14T09:42:02;94846.44;;;10.62;84.14
72677;BME280;60755;51.374;10.662;2023-03-14T09:44:33;94860.25;;;10.54;83.79
72677;BME280;60755;51.374;10.662;2023-03-14T09:47:05;94849.44;;;10.55;83.80
72677;BME280;60755;51.374;10.662;2023-03-14T09:49:36;94853.41;;;10.67;84.32
72677;BME280;60755;51.374;10.662;2023-03-14T09:52:11;94848.38;;;10.56;84.70
72677;BME280;60755;51.374;10.662;2023-03-14T09:54:43;94846.13;;;10.77;84.36
72677;BME280;60755;51.374;10.662;2023-03-14T09:57:14;94837.47;;;10.77;83.38
72677;BME280;60755;51.374;10.662;2023-03-14T09:59:43;94830.09;;;11.15;83.16
72677;BME280;60755;51.374;10.662;2023-03-14T10:02:15;94828.81;;;11.12;82.63
72677;BME280;60755;51.374;10.662;2023-03-14T10:04:48;94830.31;;;11.49;80.14
72677;BME280;60755;51.374;10.662;2023-03-14T10:07:18;94833.72;;;11.72;80.08
72677;BME280;60755;51.374;10.662;2023-03-14T10:09:48;94838.88;;;11.33;81.12
72677;BME280;60755;51.374;10.662;2023-03-14T10:12:16;94837.56;;;11.44;82.77
72677;BME280;60755;51.374;10.662;2023-03-14T10:14:49;94833.34;;;11.20;82.44
72677;BME280;60755;51.374;10.662;2023-03-14T10:17:18;94836.13;;;11.15;83.67
72677;BME280;60755;51.374;10.662;2023-03-14T10:19:55;94841.50;;;11.55;83.43
72677;BME280;60755;51.374;10.662;2023-03-14T10:22:25;94839.28;;;11.26;84.80
72677;BME280;60755;51.374;10.662;2023-03-14T10:24:54;94828.16;;;11.29;84.89
72677;BME280;60755;51.374;10.662;2023-03-14T10:27:29;94846.63;;;11.38;83.41
72677;BME280;60755;51.374;10.662;2023-03-14T10:29:58;94844.53;;;11.26;84.58
72677;BME280;60755;51.374;10.662;2023-03-14T10:32:33;94843.41;;;11.63;83.52
72677;BME280;60755;51.374;10.662;2023-03-14T10:35:08;94847.75;;;11.68;82.80
72677;BME280;60755;51.374;10.662;2023-03-14T10:37:48;94850.50;;;11.18;83.89
72677;BME280;60755;51.374;10.662;2023-03-14T10:40:18;94851.00;;;11.65;83.34
72677;BME280;60755;51.374;10.662;2023-03-14T10:42:48;94851.66;;;11.93;82.37
72677;BME280;60755;51.374;10.662;2023-03-14T10:45:33;94853.91;;;12.08;82.09
72677;BME280;60755;51.374;10.662;2023-03-14T10:48:15;94850.53;;;11.85;82.09
72677;BME280;60755;51.374;10.662;2023-03-14T10:50:53;94848.59;;;11.99;82.12
72677;BME280;60755;51.374;10.662;2023-03-14T10:53:21;94843.72;;;12.15;81.44
72677;BME280;60755;51.374;10.662;2023-03-14T10:55:49;94845.69;;;12.10;81.12
72677;BME280;60755;51.374;10.662;2023-03-14T10:58:21;94844.66;;;12.19;81.31
72677;BME280;60755;51.374;10.662;2023-03-14T11:00:55;94842.06;;;12.28;80.50
72677;BME280;60755;51.374;10.662;2023-03-14T11:03:26;94844.06;;;12.22;83.10
72677;BME280;60755;51.374;10.662;2023-03-14T11:05:59;94848.94;;;12.07;81.17
72677;BME280;60755;51.374;10.662;2023-03-14T11:08:35;94839.44;;;12.28;79.68
72677;BME280;60755;51.374;10.662;2023-03-14T11:11:11;94843.28;;;12.22;79.47
72677;BME280;60755;51.374;10.662;2023-03-14T11:13:48;94842.59;;;12.47;79.74
72677;BME280;60755;51.374;10.662;2023-03-14T11:16:22;94849.53;;;12.92;79.01
72677;BME280;60755;51.374;10.662;2023-03-14T11:19:03;94837.53;;;12.68;77.82
72677;BME280;60755;51.374;10.662;2023-03-14T11:21:41;94844.41;;;12.95;77.62
72677;BME280;60755;51.374;10.662;2023-03-14T11:24:25;94840.00;;;12.65;78.97
72677;BME280;60755;51.374;10.662;2023-03-14T11:26:58;94841.00;;;12.95;76.54
72677;BME280;60755;51.374;10.662;2023-03-14T11:29:36;94844.88;;;12.40;78.47
72677;BME280;60755;51.374;10.662;2023-03-14T11:32:12;94842.19;;;11.92;79.10
72677;BME280;60755;51.374;10.662;2023-03-14T11:34:43;94851.91;;;11.83;78.74
72677;BME280;60755;51.374;10.662;2023-03-14T11:37:16;94845.28;;;11.40;80.93
72677;BME280;60755;51.374;10.662;2023-03-14T11:39:51;94842.81;;;11.66;81.96
72677;BME280;60755;51.374;10.662;2023-03-14T11:42:22;94851.06;;;11.73;81.97
72677;BME280;60755;51.374;10.662;2023-03-14T11:44:50;94845.41;;;12.11;80.62
72677;BME280;60755;51.374;10.662;2023-03-14T11:47:21;94835.94;;;12.10;79.16
72677;BME280;60755;51.374;10.662;2023-03-14T11:49:53;94845.31;;;11.71;80.96
72677;BME280;60755;51.374;10.662;2023-03-14T11:52:29;94840.00;;;11.85;79.21
72677;BME280;60755;51.374;10.662;2023-03-14T11:55:00;94842.03;;;11.88;80.15
72677;BME280;60755;51.374;10.662;2023-03-14T11:57:29;94842.19;;;11.92;81.10
72677;BME280;60755;51.374;10.662;2023-03-14T12:00:02;94840.59;;;12.13;80.70
72677;BME280;60755;51.374;10.662;2023-03-14T12:02:45;94839.34;;;11.80;81.40
72677;BME280;60755;51.374;10.662;2023-03-14T12:05:54;94835.44;;;11.99;79.32
72677;BME280;60755;51.374;10.662;2023-03-14T12:08:37;94838.56;;;11.57;80.64
72677;BME280;60755;51.374;10.662;2023-03-14T12:11:12;94834.09;;;11.57;83.19
72677;BME280;60755;51.374;10.662;2023-03-14T12:13:41;94831.50;;;11.66;82.10
72677;BME280;60755;51.374;10.662;2023-03-14T12:16:26;94824.28;;;11.71;82.37
72677;BME280;60755;51.374;10.662;2023-03-14T12:18:54;94821.53;;;11.54;83.41
72677;BME280;60755;51.374;10.662;2023-03-14T12:21:46;94826.19;;;11.35;84.58
72677;BME280;60755;51.374;10.662;2023-03-14T12:24:20;94825.22;;;11.31;82.86
72677;BME280;60755;51.374;10.662;2023-03-14T12:26:53;94821.72;;;11.35;81.70
72677;BME280;60755;51.374;10.662;2023-03-14T12:29:21;94809.81;;;11.38;80.10
72677;BME280;60755;51.374;10.662;2023-03-14T12:31:49;94814.28;;;11.82;78.44
72677;BME280;60755;51.374;10.662;2023-03-14T12:34:32;94811.25;;;11.66;79.59
72677;BME280;60755;51.374;10.662;2023-03-14T12:37:14;94819.44;;;11.65;80.17
72677;BME280;60755;51.374;10.662;2023-03-14T12:39:56;94810.31;;;11.40;80.21
72677;BME280;60755;51.374;10.662;2023-03-14T12:42:38;94797.13;;;11.85;80.15
72677;BME280;60755;51.374;10.662;2023-03-14T12:45:22;94798.38;;;11.87;79.41
72677;BME280;60755;51.374;10.662;2023-03-14T12:47:55;94796.31;;;12.15;77.58
72677;BME280;60755;51.374;10.662;2023-03-14T12:50:34;94792.75;;;12.11;78.35
72677;BME280;60755;51.374;10.662;2023-03-14T12:53:30;94797.22;;;11.80;79.58
72677;BME280;60755;51.374;10.662;2023-03-14T12:56:08;94797.13;;;11.85;80.02
72677;BME280;60755;51.374;10.662;2023-03-14T12:58:41;94791.47;;;11.46;83.83
72677;BME280;60755;51.374;10.662;2023-03-14T13:01:16;94788.34;;;11.22;85.62
72677;BME280;60755;51.374;10.662;2023-03-14T13:03:46;94789.16;;;11.00;88.00
72677;BME280;60755;51.374;10.662;2023-03-14T13:06:51;94796.06;;;11.18;88.08
72677;BME280;60755;51.374;10.662;2023-03-14T13:12:25;94811.31;;;10.72;91.50
72677;BME280;60755;51.374;10.662;2023-03-14T13:14:57;94820.97;;;10.49;93.84
72677;BME280;60755;51.374;10.662;2023-03-14T13:17:29;94822.81;;;10.21;96.30
72677;BME280;60755;51.374;10.662;2023-03-14T13:20:01;94842.38;;;9.82;97.58
72677;BME280;60755;51.374;10.662;2023-03-14T13:22:33;94852.19;;;9.76;100.00
72677;BME280;60755;51.374;10.662;2023-03-14T13:25:04;94850.22;;;9.68;100.00